Time;durP1;ratioP1;P1;durP2;ratioP2;P2;SDS_P1;SDS_P2;PMS_P1;PMS_P2;Temp;Humidity;BMP_temperature;BMP_pressure;BME280_temperature;BME280_humidity;BME280_pressure;Samples;Min_cycle;Max_cycle;Signal;HPM_P1;HPM_P2
2021/03/21 00:00:19;;;;;;;4.87;2.90;;;;;;;-1.80;56.80;96169.41;5054919;28;20691;-74
2021/03/21 00:02:44;;;;;;;4.17;2.30;;;;;;;-1.82;56.61;96166.94;5071887;28;20296;-74
2021/03/21 00:05:10;;;;;;;5.63;3.03;;;;;;;-1.86;56.77;96172.19;5072885;28;20187;-74
2021/03/21 00:07:35;;;;;;;3.10;2.40;;;;;;;-1.89;58.04;96190.13;5055267;28;20216;-74
2021/03/21 00:10:02;;;;;;;3.87;2.67;;;;;;;-1.97;58.32;96180.22;5055204;28;20232;-74
2021/03/21 00:12:27;;;;;;;2.63;2.40;;;;;;;-1.99;58.66;96179.47;5072503;28;20247;-74
2021/03/21 00:14:52;;;;;;;4.30;2.83;;;;;;;-2.00;59.09;96176.09;5073054;28;20187;-74
2021/03/21 00:17:18;;;;;;;3.73;2.90;;;;;;;-1.98;58.57;96178.56;5072863;28;20203;-74
2021/03/21 00:19:43;;;;;;;4.63;3.13;;;;;;;-1.93;58.64;96178.41;5072850;28;20646;-74
2021/03/21 00:22:08;;;;;;;4.43;2.50;;;;;;;-1.86;57.63;96174.72;5054960;28;20689;-74
2021/03/21 00:24:33;;;;;;;3.60;3.07;;;;;;;-1.87;57.62;96176.44;5054679;28;20180;-74
2021/03/21 00:26:59;;;;;;;5.70;2.90;;;;;;;-1.89;58.08;96169.75;5054622;28;20188;-74
2021/03/21 00:29:24;;;;;;;5.03;3.00;;;;;;;-1.90;58.69;96175.75;5054742;28;20193;-74
2021/03/21 00:31:49;;;;;;;5.03;3.10;;;;;;;-1.90;58.02;96174.03;5071916;28;20249;-74
2021/03/21 00:34:15;;;;;;;3.87;3.03;;;;;;;-1.88;58.46;96179.06;5071252;28;20238;-74
2021/03/21 00:36:40;;;;;;;3.90;2.73;;;;;;;-1.86;58.35;96173.00;5054568;28;20226;-74
2021/03/21 00:39:05;;;;;;;4.33;3.03;;;;;;;-1.84;58.77;96167.88;5072402;28;20252;-74
2021/03/21 00:41:31;;;;;;;2.87;2.33;;;;;;;-1.83;59.32;96161.91;5054340;28;20566;-74
2021/03/21 00:43:57;;;;;;;4.47;2.53;;;;;;;-1.86;59.35;96162.00;5037728;28;20188;-74
2021/03/21 00:46:24;;;;;;;4.07;2.47;;;;;;;-1.83;59.40;96159.34;5054385;28;20272;-74
2021/03/21 00:48:49;;;;;;;4.23;2.13;;;;;;;-1.87;59.94;96158.63;5054345;28;20259;-74
2021/03/21 00:51:16;;;;;;;4.23;2.10;;;;;;;-1.85;60.34;96145.88;5072093;28;20235;-74
2021/03/21 00:53:42;;;;;;;2.37;2.10;;;;;;;-1.83;60.24;96152.56;5054278;28;20176;-74
2021/03/21 00:56:09;;;;;;;2.43;2.10;;;;;;;-1.86;60.82;96141.63;5053876;28;20201;-74
2021/03/21 00:58:36;;;;;;;2.83;1.97;;;;;;;-1.84;61.14;96142.44;5054238;28;20267;-74
2021/03/21 01:01:02;;;;;;;3.43;2.13;;;;;;;-1.86;60.69;96137.38;5054000;28;20548;-74
2021/03/21 01:03:27;;;;;;;3.00;2.23;;;;;;;-1.85;61.05;96143.31;5054105;28;20187;-74
2021/03/21 01:05:58;;;;;;;2.80;2.27;;;;;;;-1.85;61.37;96138.22;5053847;28;20258;-74
2021/03/21 01:08:32;;;;;;;3.63;2.10;;;;;;;-1.84;61.49;96140.72;5053963;28;20191;-74
2021/03/21 01:11:18;;;;;;;4.17;2.20;;;;;;;-1.85;61.41;96128.03;5053890;28;20222;-74
2021/03/21 01:13:44;;;;;;;3.53;1.90;;;;;;;-1.87;61.07;96130.63;5072050;28;20184;-74
2021/03/21 01:16:15;;;;;;;9.77;4.40;;;;;;;-1.84;61.13;96122.06;5071615;28;20255;-74
2021/03/21 01:18:40;;;;;;;6.20;3.40;;;;;;;-1.80;61.28;96118.50;5053916;28;20175;-74
2021/03/21 01:21:11;;;;;;;4.50;2.67;;;;;;;-1.81;61.05;96116.84;5053820;28;20858;-74
2021/03/21 01:23:36;;;;;;;4.50;2.47;;;;;;;-1.80;61.56;96110.84;5054698;28;20613;-74
2021/03/21 01:26:02;;;;;;;3.10;2.20;;;;;;;-1.82;61.01;96107.53;5071538;28;20263;-74
2021/03/21 01:28:30;;;;;;;4.13;2.10;;;;;;;-1.82;60.96;96115.19;5070385;28;20184;-74
2021/03/21 01:30:57;;;;;;;4.90;2.40;;;;;;;-1.78;61.10;96111.63;5053555;28;20208;-74
2021/03/21 01:33:24;;;;;;;2.83;2.17;;;;;;;-1.81;61.00;96107.47;5053626;28;20208;-74
2021/03/21 01:35:50;;;;;;;4.13;2.27;;;;;;;-1.80;61.35;96103.22;5053330;28;20744;-74
2021/03/21 01:38:16;;;;;;;3.60;2.30;;;;;;;-1.80;62.08;96098.97;5053513;28;20180;-74
2021/03/21 01:40:42;;;;;;;2.73;2.17;;;;;;;-1.74;61.95;96097.91;5053637;28;20184;-75
2021/03/21 01:43:12;;;;;;;4.90;2.40;;;;;;;-1.78;61.51;96094.63;5053253;28;20196;-74
2021/03/21 01:45:43;;;;;;;2.57;1.83;;;;;;;-1.80;62.08;96103.22;5052957;28;20172;-75
2021/03/21 01:48:30;;;;;;;2.37;2.07;;;;;;;-1.81;62.06;96086.28;5053717;28;20190;-74
2021/03/21 01:50:58;;;;;;;3.80;2.33;;;;;;;-1.79;62.16;96089.59;5071384;28;20202;-74
2021/03/21 01:53:25;;;;;;;2.73;2.10;;;;;;;-1.78;62.18;96088.69;5070334;28;20237;-74
2021/03/21 01:55:51;;;;;;;2.70;2.10;;;;;;;-1.82;62.00;96082.91;5053143;28;20310;-74
2021/03/21 01:58:19;;;;;;;2.90;1.97;;;;;;;-1.79;62.31;96085.34;5070144;28;20248;-74
2021/03/21 02:00:45;;;;;;;3.33;2.33;;;;;;;-1.78;62.11;96081.91;5073527;28;20571;-74
2021/03/21 02:03:11;;;;;;;2.87;2.13;;;;;;;-1.81;61.51;96071.00;5091482;28;20206;-74
2021/03/21 02:05:37;;;;;;;2.33;2.10;;;;;;;-1.76;61.33;96072.50;5091257;28;20237;-74
2021/03/21 02:08:35;;;;;;;3.30;1.73;;;;;;;-1.80;61.36;96070.94;5073367;28;20265;-74
2021/03/21 02:11:12;;;;;;;4.40;2.53;;;;;;;-1.82;61.83;96069.34;5073250;28;20659;-74
2021/03/21 02:13:40;;;;;;;3.50;2.27;;;;;;;-1.78;60.84;96058.16;5056659;28;20189;-74
2021/03/21 02:16:18;;;;;;;2.67;1.90;;;;;;;-1.77;61.22;96068.31;5091208;28;20184;-74
2021/03/21 02:19:03;;;;;;;2.17;1.73;;;;;;;-1.83;61.41;96058.34;5073200;28;20544;-74
2021/03/21 02:21:38;;;;;;;3.23;2.07;;;;;;;-1.78;61.52;96060.69;5073348;28;20218;-74
2021/03/21 02:24:43;;;;;;;3.00;2.17;;;;;;;-1.73;60.90;96056.25;5073221;28;20180;-74
2021/03/21 02:27:33;;;;;;;2.60;1.93;;;;;;;-1.81;61.27;96056.56;5073182;28;20522;-74
2021/03/21 02:30:07;;;;;;;4.17;2.30;;;;;;;-1.71;61.49;96062.94;5091319;28;20182;-74
2021/03/21 02:32:36;;;;;;;5.53;2.03;;;;;;;-1.73;61.19;96057.09;5073145;28;20214;-74
2021/03/21 02:35:18;;;;;;;2.53;2.10;;;;;;;-1.72;60.65;96055.38;5072925;28;20176;-74
2021/03/21 02:37:53;;;;;;;2.60;2.10;;;;;;;-1.69;60.87;96047.59;5073140;28;20172;-74
2021/03/21 02:40:25;;;;;;;3.00;2.13;;;;;;;-1.71;61.17;96044.28;5056418;28;20183;-74
2021/03/21 02:42:59;;;;;;;3.43;2.03;;;;;;;-1.65;59.37;96033.88;5073133;28;20196;-74
2021/03/21 02:45:27;;;;;;;1.97;1.77;;;;;;;-1.66;59.68;96039.03;5056156;28;20234;-74
2021/03/21 02:47:54;;;;;;;3.17;2.00;;;;;;;-1.61;60.11;96035.38;5073002;28;20175;-74
2021/03/21 02:50:34;;;;;;;2.70;2.00;;;;;;;-1.64;60.67;96030.44;5073124;28;20179;-74
2021/03/21 02:53:03;;;;;;;3.27;2.30;;;;;;;-1.64;59.96;96025.34;5056222;28;20215;-74
2021/03/21 02:55:35;;;;;;;4.10;2.20;;;;;;;-1.59;59.43;96023.44;5074085;28;20199;-74
2021/03/21 02:58:10;;;;;;;4.33;2.30;;;;;;;-1.53;58.46;96022.34;5076609;28;20180;-74
2021/03/21 03:00:41;;;;;;;4.10;2.57;;;;;;;-1.52;58.80;96017.19;5076395;28;20205;-74
2021/03/21 03:03:08;;;;;;;2.67;2.13;;;;;;;-1.53;59.04;96022.34;5076559;28;20191;-74
2021/03/21 03:05:45;;;;;;;3.50;2.20;;;;;;;-1.54;60.18;96016.44;5076202;28;20224;-74
2021/03/21 03:08:18;;;;;;;2.93;2.20;;;;;;;-1.51;59.23;96013.75;5076395;28;20686;-74
2021/03/21 03:10:50;;;;;;;3.70;2.13;;;;;;;-1.51;59.15;96013.75;5094511;28;20320;-74
2021/03/21 03:13:24;;;;;;;3.20;2.00;;;;;;;-1.51;58.92;96012.91;5076306;28;20728;-74
2021/03/21 03:15:53;;;;;;;5.40;2.40;;;;;;;-1.52;59.60;96001.91;5059247;28;20184;-74
2021/03/21 03:19:02;;;;;;;3.20;2.50;;;;;;;-1.48;58.53;96003.44;5076242;28;20195;-74
2021/03/21 03:21:32;;;;;;;2.23;2.00;;;;;;;-1.45;58.51;95999.94;5076417;28;20214;-74
2021/03/21 03:24:03;;;;;;;4.27;2.70;;;;;;;-1.44;57.91;95996.50;5076084;28;20580;-74
2021/03/21 03:26:47;;;;;;;2.80;2.17;;;;;;;-1.42;57.82;95994.69;5075898;28;20269;-74
2021/03/21 03:29:16;;;;;;;3.30;2.40;;;;;;;-1.42;58.12;95984.50;5075992;28;20179;-74
2021/03/21 03:31:54;;;;;;;6.90;2.97;;;;;;;-1.39;57.92;95986.94;5075866;28;20234;-74
2021/03/21 03:34:20;;;;;;;3.67;2.20;;;;;;;-1.38;58.17;95982.69;5058943;28;20233;-74
2021/03/21 03:36:45;;;;;;;3.97;2.43;;;;;;;-1.41;58.29;95988.75;5076046;28;20175;-74
2021/03/21 03:39:11;;;;;;;3.03;2.00;;;;;;;-1.46;58.95;95986.38;5075861;28;20183;-74
2021/03/21 03:41:54;;;;;;;2.57;2.37;;;;;;;-1.39;58.56;95988.66;5093777;28;20191;-74
2021/03/21 03:44:36;;;;;;;3.93;2.07;;;;;;;-1.44;58.94;95991.41;5075576;28;20173;-74
2021/03/21 03:47:04;;;;;;;4.87;3.00;;;;;;;-1.43;58.09;95996.41;5075841;28;20180;-74
2021/03/21 03:49:43;;;;;;;6.17;3.70;;;;;;;-1.38;58.23;95995.41;5075741;28;20171;-74
2021/03/21 03:52:50;;;;;;;5.33;2.90;;;;;;;-1.25;57.36;95994.81;5075406;28;20203;-74
2021/03/21 03:55:40;;;;;;;7.17;3.17;;;;;;;-1.29;57.82;96002.69;4991526;28;20186;-74
2021/03/21 03:58:42;;;;;;;3.87;2.70;;;;;;;-1.31;57.96;95999.38;4991743;28;20191;-74
2021/03/21 04:01:12;;;;;;;6.23;2.70;;;;;;;-1.29;58.51;96008.59;4991449;28;20570;-74
2021/03/21 04:03:41;;;;;;;3.37;2.50;;;;;;;-1.27;58.88;96000.88;4975317;28;20664;-74
2021/03/21 04:06:16;;;;;;;5.23;2.67;;;;;;;-1.31;59.15;95995.09;4974664;28;20651;-74
2021/03/21 04:08:59;;;;;;;3.27;2.20;;;;;;;-1.28;59.03;95994.13;4974858;28;20238;-74
2021/03/21 04:11:36;;;;;;;3.10;2.53;;;;;;;-1.30;59.05;95986.56;4975319;28;20222;-74
2021/03/21 04:14:13;;;;;;;3.17;2.40;;;;;;;-1.24;58.92;95978.63;4975314;28;20228;-74
2021/03/21 04:16:43;;;;;;;3.90;2.87;;;;;;;-1.21;58.55;95973.44;4975021;28;20187;-73
2021/03/21 04:19:12;;;;;;;3.70;2.40;;;;;;;-1.20;58.53;95975.06;4959027;28;20193;-74
2021/03/21 04:21:46;;;;;;;3.87;2.80;;;;;;;-1.25;58.26;95971.88;4974994;28;20278;-73
2021/03/21 04:24:19;;;;;;;4.00;2.83;;;;;;;-1.20;58.75;95961.50;4975113;28;20178;-73
2021/03/21 04:26:54;;;;;;;3.50;2.77;;;;;;;-1.18;58.18;95958.00;4974997;28;20302;-73
2021/03/21 04:29:26;;;;;;;4.13;2.80;;;;;;;-1.22;58.30;95968.41;5028697;28;20214;-73
2021/03/21 04:31:53;;;;;;;3.43;2.50;;;;;;;-1.09;56.74;95959.31;5074732;28;20256;-73
2021/03/21 04:34:19;;;;;;;3.43;2.60;;;;;;;-1.16;56.81;95957.91;5074574;28;20179;-73
2021/03/21 04:36:46;;;;;;;6.00;2.70;;;;;;;-1.13;57.36;95954.44;5074693;28;20237;-73
2021/03/21 04:39:16;;;;;;;4.77;2.50;;;;;;;-1.18;57.21;95955.44;5074744;28;20262;-73
2021/03/21 04:41:46;;;;;;;6.40;2.57;;;;;;;-1.10;55.18;95944.91;5074507;28;20718;-73
2021/03/21 04:44:26;;;;;;;4.67;2.73;;;;;;;-1.08;55.61;95932.94;5057794;28;20192;-73
2021/03/21 04:46:59;;;;;;;4.03;2.53;;;;;;;-1.04;55.23;95937.00;5074589;28;20183;-73
2021/03/21 04:49:25;;;;;;;2.80;2.27;;;;;;;-1.06;55.71;95931.16;5057863;28;20175;-73
2021/03/21 04:52:03;;;;;;;3.80;2.33;;;;;;;-1.05;55.52;95919.25;5057487;28;20216;-73
2021/03/21 04:54:31;;;;;;;5.63;2.63;;;;;;;-1.09;54.98;95915.97;5074229;28;20211;-73
2021/03/21 04:57:04;;;;;;;2.80;2.60;;;;;;;-1.04;54.76;95926.81;5074233;28;20204;-73
2021/03/21 04:59:33;;;;;;;3.73;2.70;;;;;;;-1.05;55.55;95929.44;5074277;28;20260;-73
2021/03/21 05:02:05;;;;;;;5.10;2.60;;;;;;;-1.06;55.96;95940.50;5073836;28;20288;-73
2021/03/21 05:04:32;;;;;;;4.87;2.40;;;;;;;-1.08;56.11;95952.50;5073906;28;20339;-73
2021/03/21 05:07:09;;;;;;;3.63;2.57;;;;;;;-1.07;55.86;95938.84;5074181;28;20175;-73
2021/03/21 05:09:39;;;;;;;3.27;2.40;;;;;;;-1.00;55.34;95943.63;5057422;28;20175;-73
2021/03/21 05:12:14;;;;;;;3.47;2.60;;;;;;;-1.02;56.06;95947.97;5073808;28;20215;-73
2021/03/21 05:15:20;;;;;;;4.67;2.73;;;;;;;-0.95;55.41;95951.91;5073793;28;20229;-73
2021/03/21 05:18:14;;;;;;;4.03;2.33;;;;;;;-1.00;55.90;95948.72;5072584;28;20245;-73
2021/03/21 05:20:42;;;;;;;3.50;2.60;;;;;;;-0.99;55.53;95955.47;5074459;28;20165;-73
2021/03/21 05:23:32;;;;;;;3.20;2.30;;;;;;;-0.94;55.60;95966.28;5091868;28;20203;-73
2021/03/21 05:26:16;;;;;;;2.63;2.10;;;;;;;-0.95;56.10;95959.53;5073695;28;20259;-73
2021/03/21 05:28:50;;;;;;;3.43;2.33;;;;;;;-0.93;55.23;95954.38;5092006;28;20834;-73
2021/03/21 05:31:16;;;;;;;4.70;2.93;;;;;;;-0.98;56.33;95959.66;5073452;28;20704;-73
2021/03/21 05:33:43;;;;;;;4.10;2.97;;;;;;;-0.98;57.13;95972.41;5073774;28;20520;-73
2021/03/21 05:36:41;;;;;;;4.27;2.63;;;;;;;-1.04;57.62;95964.22;5073476;28;20541;-73
2021/03/21 05:39:15;;;;;;;3.83;2.20;;;;;;;-1.03;57.86;95969.25;5091850;28;20184;-73
2021/03/21 05:41:51;;;;;;;3.47;2.57;;;;;;;-1.04;58.02;95969.31;5073589;28;20192;-73
2021/03/21 05:45:03;;;;;;;4.40;2.27;;;;;;;-1.03;58.17;95961.59;5056607;28;20184;-73
2021/03/21 05:47:50;;;;;;;3.17;2.23;;;;;;;-1.00;57.79;95952.97;5091659;28;20194;-73
2021/03/21 05:50:53;;;;;;;3.27;2.40;;;;;;;-1.01;57.57;95946.22;5073550;28;20217;-73
2021/03/21 05:53:41;;;;;;;3.77;2.53;;;;;;;-1.00;56.49;95937.69;5091475;28;20207;-73
2021/03/21 05:56:34;;;;;;;3.80;2.53;;;;;;;-0.94;56.84;95942.53;5056454;28;20247;-73
2021/03/21 05:59:37;;;;;;;5.60;2.60;;;;;;;-0.95;56.14;95928.13;5091522;28;20179;-73
2021/03/21 06:02:28;;;;;;;3.67;2.30;;;;;;;-0.90;57.00;95919.34;5091131;28;20202;-73
2021/03/21 06:05:20;;;;;;;4.03;2.30;;;;;;;-0.86;56.37;95925.16;5073088;28;20187;-73
2021/03/21 06:08:01;;;;;;;3.83;3.13;;;;;;;-0.83;56.11;95922.47;5074104;28;20634;-73
2021/03/21 06:10:45;;;;;;;2.97;2.50;;;;;;;-0.78;56.42;95924.81;5091386;28;20536;-73
2021/03/21 06:13:22;;;;;;;5.93;2.47;;;;;;;-0.76;56.22;95920.47;5073086;28;20219;-73
2021/03/21 06:15:59;;;;;;;3.07;2.40;;;;;;;-0.74;55.96;95919.50;5091234;28;20211;-72
2021/03/21 06:18:49;;;;;;;2.93;2.50;;;;;;;-0.70;56.12;95915.91;5073259;28;20217;-72
2021/03/21 06:21:25;;;;;;;5.50;3.17;;;;;;;-0.66;56.22;95919.16;5091302;28;20707;-73
2021/03/21 06:24:09;;;;;;;4.20;2.93;;;;;;;-0.65;56.72;95924.16;5073448;28;20220;-73
2021/03/21 06:26:40;;;;;;;4.27;2.60;;;;;;;-0.63;56.82;95926.66;5073010;28;20207;-73
2021/03/21 06:29:29;;;;;;;4.63;3.00;;;;;;;-0.63;56.67;95930.03;5073102;28;20188;-72
2021/03/21 06:32:09;;;;;;;3.73;2.40;;;;;;;-0.55;56.64;95924.56;5076820;28;20295;-73
2021/03/21 06:34:42;;;;;;;3.20;2.43;;;;;;;-0.51;56.86;95923.53;5076680;28;20176;-72
2021/03/21 06:37:23;;;;;;;5.70;3.53;;;;;;;-0.46;55.93;95929.25;5077169;28;20296;-73
2021/03/21 06:40:13;;;;;;;5.43;3.67;;;;;;;-0.44;55.72;95932.56;5095186;28;20747;-73
2021/03/21 06:42:47;;;;;;;6.13;4.20;;;;;;;-0.31;55.70;95936.19;5076800;28;20606;-72
2021/03/21 06:45:41;;;;;;;4.50;3.27;;;;;;;-0.36;55.29;95930.47;5076603;28;20222;-72
2021/03/21 06:48:16;;;;;;;9.27;4.93;;;;;;;-0.38;55.69;95928.88;5094991;28;20211;-73
2021/03/21 06:51:20;;;;;;;10.13;6.30;;;;;;;-0.36;55.62;95920.25;5076761;28;20194;-73
2021/03/21 06:53:53;;;;;;;15.83;8.97;;;;;;;-0.31;54.96;95918.31;5049835;28;20198;-72
2021/03/21 06:56:31;;;;;;;12.30;7.60;;;;;;;-0.31;54.79;95912.41;5059684;28;20198;-72
2021/03/21 06:59:18;;;;;;;13.07;8.23;;;;;;;-0.32;54.37;95911.56;5076523;28;20234;-73
2021/03/21 07:02:11;;;;;;;11.93;7.10;;;;;;;-0.26;54.55;95919.84;5076236;28;20607;-72
2021/03/21 07:04:57;;;;;;;4.43;3.33;;;;;;;-0.14;53.62;95917.53;5094671;28;20539;-73
2021/03/21 07:07:51;;;;;;;9.93;5.33;;;;;;;-0.15;53.86;95907.38;5076568;28;20175;-73
2021/03/21 07:10:42;;;;;;;4.97;3.60;;;;;;;-0.14;54.51;95916.69;5066748;28;20188;-72
2021/03/21 07:13:40;;;;;;;19.97;9.30;;;;;;;-0.08;54.30;95912.13;5076230;28;20303;-72
2021/03/21 07:16:45;;;;;;;12.70;10.50;;;;;;;0.02;54.22;95919.34;5092035;28;20190;-72
2021/03/21 07:19:29;;;;;;;13.17;7.83;;;;;;;0.04;53.51;95908.16;5073463;28;20219;-71
2021/03/21 07:22:14;;;;;;;8.63;3.97;;;;;;;-0.05;53.63;95903.50;5092100;28;20686;-71
2021/03/21 07:24:57;;;;;;;19.53;10.03;;;;;;;0.01;53.57;95902.38;5073705;28;20199;-74
2021/03/21 07:27:34;;;;;;;7.97;4.83;;;;;;;0.02;53.24;95904.84;5094043;28;20177;-72
2021/03/21 07:30:09;;;;;;;9.60;5.97;;;;;;;0.04;53.76;95905.59;5093422;28;20176;-71
2021/03/21 07:33:11;;;;;;;8.93;5.33;;;;;;;0.05;54.36;95904.69;5094022;28;20309;-72
2021/03/21 07:35:51;;;;;;;6.83;4.03;;;;;;;0.02;54.06;95922.72;5075475;28;20262;-72
2021/03/21 07:38:20;;;;;;;6.20;4.03;;;;;;;0.04;55.30;95918.34;5074741;28;20222;-72
2021/03/21 07:40:49;;;;;;;8.97;4.70;;;;;;;0.03;54.94;95921.81;5070537;28;20189;-72
2021/03/21 07:43:29;;;;;;;6.77;4.20;;;;;;;0.07;54.92;95920.75;5090677;28;20188;-72
2021/03/21 07:46:39;;;;;;;5.53;3.50;;;;;;;0.09;55.03;95920.66;5093476;28;20177;-72
2021/03/21 07:49:20;;;;;;;7.83;4.47;;;;;;;0.13;54.50;95917.09;4975555;28;20219;-72
2021/03/21 07:52:16;;;;;;;11.30;5.17;;;;;;;0.16;54.52;95916.91;5071791;28;20270;-72
2021/03/21 07:55:34;;;;;;;6.10;4.07;;;;;;;0.14;54.48;95919.56;5093474;28;20652;-72
2021/03/21 07:58:18;;;;;;;8.87;5.80;;;;;;;0.17;54.83;95911.72;4975355;28;20191;-71
2021/03/21 08:00:44;;;;;;;7.13;4.30;;;;;;;0.23;54.58;95910.63;4991540;28;20212;-72
2021/03/21 08:03:26;;;;;;;5.80;3.40;;;;;;;0.21;54.47;95902.22;4975370;28;20200;-72
2021/03/21 08:05:54;;;;;;;6.93;4.90;;;;;;;0.21;54.33;95905.59;4975081;28;20290;-72
2021/03/21 08:08:32;;;;;;;8.83;5.10;;;;;;;0.20;54.69;95908.22;4991680;28;20188;-72
2021/03/21 08:11:01;;;;;;;9.93;5.00;;;;;;;0.22;54.39;95912.34;4975077;28;20188;-72
2021/03/21 08:13:35;;;;;;;11.30;6.40;;;;;;;0.16;55.00;95906.69;4991407;28;20188;-72
2021/03/21 08:16:01;;;;;;;13.53;7.50;;;;;;;0.12;55.11;95898.38;4991211;28;20225;-72
2021/03/21 08:18:34;;;;;;;7.13;4.63;;;;;;;0.18;54.89;95902.38;4975461;28;20219;-72
2021/03/21 08:21:05;;;;;;;7.40;5.10;;;;;;;0.23;54.51;95906.31;4975173;28;20275;-72
2021/03/21 08:23:39;;;;;;;11.23;5.13;;;;;;;0.23;53.61;95890.19;4991186;28;20186;-72
2021/03/21 08:26:11;;;;;;;8.10;5.60;;;;;;;0.36;53.85;95887.84;4974736;28;20231;-72
2021/03/21 08:29:03;;;;;;;10.60;6.97;;;;;;;0.33;53.18;95876.03;4991363;28;20176;-72
2021/03/21 08:31:43;;;;;;;6.70;4.30;;;;;;;0.49;53.82;95853.09;5027677;28;20222;-72
2021/03/21 08:34:37;;;;;;;8.77;5.37;;;;;;;0.77;52.79;95847.38;5058197;28;20215;-71
2021/03/21 08:37:12;;;;;;;7.40;5.00;;;;;;;0.99;52.64;95841.94;5092954;28;20183;-72
2021/03/21 08:39:44;;;;;;;8.43;4.90;;;;;;;1.09;52.36;95850.78;5074711;28;20241;-72
2021/03/21 08:42:30;;;;;;;8.40;5.50;;;;;;;1.07;51.95;95850.03;5091618;28;20189;-72
2021/03/21 08:45:05;;;;;;;12.07;7.07;;;;;;;0.92;52.32;95848.28;5074197;28;20660;-72
2021/03/21 08:47:30;;;;;;;11.13;6.93;;;;;;;1.15;52.73;95860.69;5092665;28;20847;-73
2021/03/21 08:49:58;;;;;;;9.53;6.83;;;;;;;1.19;52.98;95859.59;5074511;28;20180;-73
2021/03/21 08:52:44;;;;;;;8.00;5.90;;;;;;;1.11;52.83;95857.44;5074367;28;20212;-74
2021/03/21 08:55:39;;;;;;;11.37;5.87;;;;;;;1.08;52.86;95857.63;5074023;28;20184;-72
2021/03/21 08:58:25;;;;;;;8.93;6.00;;;;;;;1.29;52.94;95858.19;4990544;28;20279;-72
2021/03/21 09:00:51;;;;;;;7.60;5.17;;;;;;;1.45;52.37;95852.22;4990450;28;20675;-72
2021/03/21 09:03:27;;;;;;;7.50;6.17;;;;;;;1.48;52.62;95858.00;4958301;28;20212;-73
2021/03/21 09:05:54;;;;;;;7.60;5.47;;;;;;;1.54;52.57;95849.97;4974089;28;20218;-72
2021/03/21 09:08:27;;;;;;;6.70;4.33;;;;;;;1.51;52.31;95845.03;4987844;28;20199;-73
2021/03/21 09:10:56;;;;;;;9.67;5.50;;;;;;;1.56;52.22;95845.59;4970288;28;20218;-72
2021/03/21 09:13:27;;;;;;;12.23;6.80;;;;;;;1.73;52.19;95849.78;4974445;28;20206;-73
2021/03/21 09:16:00;;;;;;;12.03;6.83;;;;;;;1.94;52.64;95853.69;4969920;28;20197;-73
2021/03/21 09:18:37;;;;;;;9.73;6.00;;;;;;;1.97;52.46;95848.38;4991454;28;20188;-73
2021/03/21 09:21:20;;;;;;;12.83;4.90;;;;;;;2.09;52.82;95849.41;4997523;28;20693;-73
2021/03/21 09:23:48;;;;;;;8.13;5.57;;;;;;;2.19;52.13;95852.25;4982897;28;20278;-73
2021/03/21 09:26:16;;;;;;;7.70;5.63;;;;;;;2.11;52.83;95864.69;5000755;28;20643;-73
2021/03/21 09:28:45;;;;;;;8.40;5.63;;;;;;;2.07;53.12;95869.16;4989443;28;20644;-73
2021/03/21 09:31:11;;;;;;;10.60;6.90;;;;;;;2.18;53.53;95858.28;4994535;28;20228;-73
2021/03/21 09:34:01;;;;;;;16.73;10.70;;;;;;;2.17;52.85;95869.47;4991660;28;20675;-73
2021/03/21 09:36:57;;;;;;;28.60;17.83;;;;;;;2.21;53.65;95876.91;5091236;28;20191;-73
2021/03/21 09:40:08;;;;;;;9.97;6.97;;;;;;;2.03;53.64;95874.53;5071816;28;20188;-74
2021/03/21 09:42:33;;;;;;;9.37;7.40;;;;;;;2.04;54.38;95874.47;5025925;28;20610;-74
2021/03/21 09:44:59;;;;;;;9.73;7.47;;;;;;;2.14;54.16;95864.53;5071526;28;20173;-73
2021/03/21 09:47:48;;;;;;;10.40;7.10;;;;;;;2.20;54.30;95876.97;5070129;28;20256;-73
2021/03/21 09:50:22;;;;;;;7.83;6.63;;;;;;;2.27;53.66;95885.94;5053743;28;20541;-74
2021/03/21 09:52:56;;;;;;;9.10;7.43;;;;;;;2.38;54.26;95885.31;5055284;28;20212;-72
2021/03/21 09:55:42;;;;;;;8.57;6.57;;;;;;;2.47;53.92;95890.75;5076081;28;20184;-73
2021/03/21 09:58:36;;;;;;;8.73;6.07;;;;;;;2.41;54.09;95891.09;5057658;28;20694;-73
2021/03/21 10:01:23;;;;;;;10.77;6.83;;;;;;;2.18;54.32;95902.69;5096789;28;20181;-73
2021/03/21 10:04:01;;;;;;;11.80;7.33;;;;;;;1.86;55.49;95890.91;5077760;28;20188;-73
2021/03/21 10:06:31;;;;;;;9.90;8.07;;;;;;;1.91;56.80;95894.81;5062329;28;20193;-74
2021/03/21 10:09:15;;;;;;;11.67;7.67;;;;;;;1.95;57.68;95904.00;5060856;28;20802;-74
2021/03/21 10:11:45;;;;;;;11.07;8.10;;;;;;;1.87;58.24;95898.47;5091421;28;20586;-74
2021/03/21 10:14:26;;;;;;;9.53;7.53;;;;;;;1.81;57.75;95892.88;5083269;28;20189;-74
2021/03/21 10:16:53;;;;;;;11.40;8.10;;;;;;;1.87;57.40;95892.53;5104763;28;20206;-74
2021/03/21 10:19:46;;;;;;;11.57;7.70;;;;;;;1.78;56.83;95898.19;5087367;28;20173;-74
2021/03/21 10:22:18;;;;;;;12.90;9.33;;;;;;;1.78;57.34;95900.75;5089913;28;20196;-74
2021/03/21 10:24:44;;;;;;;10.30;7.93;;;;;;;1.86;56.23;95886.59;5107126;28;20184;-74
2021/03/21 10:27:17;;;;;;;12.83;8.50;;;;;;;1.82;56.68;95885.09;5086763;28;20571;-74
2021/03/21 10:30:09;;;;;;;11.53;8.50;;;;;;;1.93;58.70;95882.75;5098548;28;20671;-74
2021/03/21 10:32:37;;;;;;;12.30;9.03;;;;;;;2.05;59.32;95885.53;5075232;28;20212;-75
2021/03/21 10:35:10;;;;;;;10.50;7.87;;;;;;;2.19;59.42;95871.00;5076903;28;20172;-75
2021/03/21 10:37:41;;;;;;;10.93;7.90;;;;;;;2.52;59.71;95886.16;5060299;28;20534;-74
2021/03/21 10:40:34;;;;;;;11.83;9.80;;;;;;;2.63;60.61;95882.13;5077100;28;20204;-75
2021/03/21 10:43:02;;;;;;;15.20;9.97;;;;;;;2.78;59.82;95876.09;5093534;28;20280;-75
2021/03/21 10:45:30;;;;;;;13.37;9.30;;;;;;;3.09;59.11;95877.63;5076747;28;20188;-74
2021/03/21 10:47:55;;;;;;;12.60;9.33;;;;;;;3.34;58.51;95872.63;5076816;28;20177;-75
2021/03/21 10:50:27;;;;;;;15.87;10.50;;;;;;;3.48;57.91;95868.38;5077050;28;20180;-75
2021/03/21 10:53:17;;;;;;;14.57;9.13;;;;;;;3.97;56.61;95858.34;5094805;28;20283;-75
2021/03/21 10:56:03;;;;;;;13.80;8.27;;;;;;;3.84;57.07;95848.03;5094759;28;20177;-75
2021/03/21 10:58:50;;;;;;;12.07;8.80;;;;;;;4.09;56.65;95842.13;5094181;28;20198;-75
2021/03/21 11:01:22;;;;;;;11.23;8.37;;;;;;;3.79;58.45;95844.13;5075991;28;20196;-75
2021/03/21 11:04:00;;;;;;;10.63;8.40;;;;;;;3.95;57.21;95844.78;5094730;28;20172;-75
2021/03/21 11:06:28;;;;;;;10.73;8.33;;;;;;;4.06;57.12;95846.63;5094415;28;20271;-75
2021/03/21 11:08:53;;;;;;;12.83;8.70;;;;;;;3.97;57.26;95835.22;5077194;28;20181;-76
2021/03/21 11:11:22;;;;;;;12.03;9.03;;;;;;;3.93;58.25;95834.59;5068547;28;20700;-75
2021/03/21 11:13:48;;;;;;;13.57;8.23;;;;;;;4.08;59.22;95853.34;5076469;28;20267;-75
2021/03/21 11:16:16;;;;;;;10.30;7.47;;;;;;;4.19;58.86;95832.06;5092607;28;20192;-76
2021/03/21 11:18:43;;;;;;;10.40;7.90;;;;;;;3.94;60.29;95843.13;5059826;28;20180;-75
2021/03/21 11:21:24;;;;;;;10.47;7.73;;;;;;;3.80;60.84;95840.63;5076346;28;20173;-74
2021/03/21 11:24:14;;;;;;;8.33;6.97;;;;;;;3.73;61.53;95835.09;5069233;28;20562;-75
2021/03/21 11:26:40;;;;;;;9.63;6.73;;;;;;;3.46;62.68;95847.94;5088285;28;20233;-75
2021/03/21 11:29:05;;;;;;;10.97;7.57;;;;;;;3.34;63.48;95853.81;5076312;28;20251;-75
2021/03/21 11:31:48;;;;;;;8.90;6.73;;;;;;;3.11;64.31;95848.41;5095389;28;20197;-76
2021/03/21 11:34:16;;;;;;;14.47;8.80;;;;;;;2.95;64.91;95839.16;5059758;28;20279;-75
2021/03/21 11:36:41;;;;;;;8.47;6.63;;;;;;;2.98;65.37;95836.41;5072224;28;20194;-75
2021/03/21 11:39:20;;;;;;;8.70;6.90;;;;;;;3.31;64.58;95836.88;5073975;28;20648;-75
2021/03/21 11:41:46;;;;;;;11.07;7.57;;;;;;;3.33;65.09;95832.47;5075618;28;20188;-75
2021/03/21 11:44:25;;;;;;;10.37;7.90;;;;;;;3.44;65.14;95834.34;5075926;28;20183;-75
2021/03/21 11:46:53;;;;;;;8.10;6.73;;;;;;;3.40;65.10;95840.63;5076170;28;20723;-75
2021/03/21 11:49:21;;;;;;;8.77;6.50;;;;;;;3.40;65.68;95838.06;5075889;28;20168;-75
2021/03/21 11:51:58;;;;;;;9.63;7.70;;;;;;;3.42;65.32;95841.34;5059096;28;20204;-76
2021/03/21 11:54:26;;;;;;;10.33;7.30;;;;;;;3.50;65.49;95836.53;5075562;28;20181;-75
2021/03/21 11:57:13;;;;;;;6.40;5.40;;;;;;;3.66;64.21;95836.41;5075609;28;20535;-75
2021/03/21 11:59:47;;;;;;;8.47;5.73;;;;;;;3.47;65.41;95834.19;5093790;28;20304;-76
2021/03/21 12:02:31;;;;;;;12.13;8.70;;;;;;;3.47;65.71;95834.19;5058644;28;20192;-75
2021/03/21 12:04:59;;;;;;;6.93;5.27;;;;;;;3.51;65.51;95856.16;5074729;28;20662;-75
2021/03/21 12:07:27;;;;;;;7.37;6.07;;;;;;;3.42;66.59;95859.31;5075019;28;20271;-76
2021/03/21 12:09:53;;;;;;;10.20;8.30;;;;;;;3.24;67.09;95850.19;5055705;28;20271;-75
2021/03/21 12:12:38;;;;;;;23.60;17.73;;;;;;;3.29;67.03;95843.88;5074320;28;20339;-75
2021/03/21 12:15:14;;;;;;;9.60;6.90;;;;;;;3.40;67.07;95845.75;5092569;28;20184;-75